MiSS Stacie — WDF5915 — position and weather

sailwx.info

Track history (hours):
 
Tides and Currents Weather Stations Pressure Air Temp Water Temp Dewpoint Dewpoint Depression Visibility Wind Speed Wind Dir Waves Ship Positions

MiSS Stacie

Owner: Crosby Marine Transportation LLC, Golden Meadow, LA. More information available from US FCC via Universal Licensing System and Coast Guard Vessel Documentation Center.

Last reported at 2018-Jan-19 21:08 UTC. Time now 2018-Jan-20 13:26 UTC.
Position N 29°42' W 095°01'.

Length 20 m; draft 2 m.

Type: Tug. MMSI: 367468640.

Date/timePositionNaut miles runAvg speedWind from/ knotsBaromVisibWave heightAir tempDewpointWater temp
2018-Jan-19 21:08N 29°42' W 095°01'1 6.1
2018-Jan-19 20:58N 29°42' W 095°00'3 5.9
2018-Jan-19 20:30N 29°40' W 094°58'3 6.4
2018-Jan-19 20:00N 29°37' W 094°57'3 6.3
2018-Jan-19 19:30N 29°34' W 094°55'3 5.5
2018-Jan-19 19:00N 29°32' W 094°53'1 0.0
2018-Jan-18 00:34N 29°31' W 094°53'3 5.7
2018-Jan-18 00:00N 29°33' W 094°55'0 6.1
2018-Jan-17 23:56N 29°34' W 094°55'  
2018-Jan-11 09:36N 29°45' W 095°06'0 4.8
2018-Jan-11 09:30N 29°46' W 095°05'1 0.6
2018-Jan-11 07:35N 29°45' W 095°06'3 0.1
2018-Jan-10 00:41N 29°45' W 095°10'1 4.8
2018-Jan-10 00:29N 29°44' W 095°09'  
Track history (hours):
 
Tides and Currents Weather Stations Pressure Air Temp Water Temp Dewpoint Dewpoint Depression Visibility Wind Speed Wind Dir Waves Ship Positions

MiSS Stacie

Owner: Crosby Marine Transportation LLC, Golden Meadow, LA. More information available from US FCC via Universal Licensing System and Coast Guard Vessel Documentation Center.

Last reported at 2018-Jan-19 21:08 UTC. Time now 2018-Jan-20 13:26 UTC.
Position N 29°42' W 095°01'.

Length 20 m; draft 2 m.

Type: Tug. MMSI: 367468640.

Date/timePositionNaut miles runAvg speedWind from/ knotsBaromVisibWave heightAir tempDewpointWater temp
2018-Jan-19 21:08N 29°42' W 095°01'1 6.1
2018-Jan-19 20:58N 29°42' W 095°00'3 5.9
2018-Jan-19 20:30N 29°40' W 094°58'3 6.4
2018-Jan-19 20:00N 29°37' W 094°57'3 6.3
2018-Jan-19 19:30N 29°34' W 094°55'3 5.5
2018-Jan-19 19:00N 29°32' W 094°53'1 0.0
2018-Jan-18 00:34N 29°31' W 094°53'3 5.7
2018-Jan-18 00:00N 29°33' W 094°55'0 6.1
2018-Jan-17 23:56N 29°34' W 094°55'  
2018-Jan-11 09:36N 29°45' W 095°06'0 4.8
2018-Jan-11 09:30N 29°46' W 095°05'1 0.6
2018-Jan-11 07:35N 29°45' W 095°06'3 0.1
2018-Jan-10 00:41N 29°45' W 095°10'1 4.8
2018-Jan-10 00:29N 29°44' W 095°09'  

Dump ship's entire track history